gamer.nl alexa rank chart, gamer.nl alexa rank daily changes

gamer.nl alexa rank chart, gamer.nl alexa rank daily changes

gamer.nl
Actual rank:
134 835

RANK HISTORY

Date Rank Diff
2017/03/28 134 835 -611
2017/03/27 135 446 -592
2017/03/26 136 038 -4 775
2017/03/25 140 813 -3 934
2017/03/24 144 747 -3 210
2017/03/23 147 957 -2 999
2017/03/22 150 956 -2 305
2017/03/21 153 261 -3 504
2017/03/20 156 765 -3 390
2017/03/19 160 155 -2 946
2017/03/18 163 101 -5 119
2017/03/17 168 220 -4 781
2017/03/16 173 001 -5 596
2017/03/15 178 597 -5 028
2017/03/14 183 625 -5 707
2017/03/13 189 332 +264
2017/03/12 189 068 -7 946
2017/03/11 197 014 -4 902
2017/03/10 201 916 -5 022
2017/03/09 206 938 -6 505
2017/03/08 213 443 -11 148
2017/03/07 224 591 -26 804
2017/03/06 251 395 +5 037
2017/03/01 246 358 -6 678
2017/02/28 253 036 +223
2017/02/27 252 813 -10 764
2017/02/26 263 577 -3 264
2017/02/25 266 841 -1 328
2017/02/24 268 169 -6 513
2017/02/23 274 682 +3 997
2017/02/22 270 685 -6 101
2017/02/21 276 786 +10 839
2017/02/20 265 947 +3 700
2017/02/19 262 247 +4 806
2017/02/18 257 441 +5 656
2017/02/17 251 785 -3 041
2017/02/16 254 826 -1 121
2017/02/15 255 947 +3 448
2017/02/14 252 499 +4 259
2017/02/13 248 240 -2 993
2017/02/12 251 233 +1 039
2017/02/11 250 194 -4 482
2017/02/10 254 676 -3 834
2017/02/09 258 510 -4 995
2017/02/08 263 505 -3 883
2017/02/07 267 388 +4 184
2017/02/06 263 204 -8 828
2017/02/05 272 032 -4 613
2017/02/04 276 645 +227
2017/02/03 276 418 -1 307
2017/02/02 277 725 -10 264
2017/02/01 287 989 -4 434
2017/01/31 292 423 -325
2017/01/30 292 748 +13
2017/01/29 292 735 +867
2017/01/28 291 868 -6 748
2017/01/27 298 616

WIDGET FOR YOUR SITE

DOMAINS WITH THE NEAREST RANK

Domain Rank
liza.ua 134 830
whois-service.ru 134 831
cronica.com.py 134 832
yorumcu.com 134 833
espace-musculation.com 134 834
gamer.nl 134 835
younrj.com 134 836
fallout4map.com 134 837
forma-odezhda.ru 134 838
rentafriend.com 134 839
meteo-info.hr 134 840

DOMAINS WITH THE NEAREST RANK BY TLD .nl

Domain Rank
thuisarts.nl 133 856
huizenzoeker.nl 134 238
contactmet40plus.nl 134 274
futurumshop.nl 134 514
testnet.nl 134 576
gamer.nl 134 835
sprout.nl 134 938
ninefornews.nl 135 154
marokko.nl 135 289
pvv.nl 135 447
sunweb.nl 135 480